Huvudsida
METAR-TAF:

METAR-TAF

Flygplatser :

Jekaterinburg, Ryssland

latitud: 56-50N, longitud: 060-38E, höjd: 237 m

Aktuellt väderrapport

Denna rapport gjordes för 17 minuter sedan, klockan 09:30 UTC
Vind 12 kt från syd/sydväst
Temperatur 24°C
Fuktighet 31%
Tryck 1017 hPa
Sikt 10 km eller mer
Inga moln under 1 500 m eller inga cumulonimbus

METAR: USSS 250930Z 20006MPS CAVOK 24/06 Q1017 R26L/010060 R26R/090060 NOSIG RMK QFE742/0989

Tid: 14:47 (09:47 UTC)

Väderprognos

Denna rapport gjordes för 1 timme och 47 minuter sedan, klockan 08:00 UTC
Prognos gäller från 25 kl. 09 UTC till 26 kl. 09 UTC
Vind 6 kt från syd i byarna ända upp till 19 kt
Sikt 10 km eller mer
Spridda moln på en höjd av 3000 ft
Temporärt
från 25 kl. 09 UTC till 25 kl. 16 UTC
Vind 12 kt från syd/sydväst i byarna ända upp till 25 kt
Blir
från 25 kl. 16 UTC till 25 kl. 17 UTC
Sikt: 6000 m
grunt dimma

TAF: USSS 250800Z 2509/2609 17003G10MPS 9999 SCT030 TEMPO 2509/2516 21006G13MPS BECMG 2516/2517 6000 MIFG

Aktuella väderrapporter och prognoser från 4000 flygplatser (METAR- och TAF-rapporter).

De tillgängliga stationerna syns som gula och röda prickar på kartan.

För musen över prickarna för att se namnen på stationerna.

Klicka sedan för att få väderrapporter och prognoser.

För att ändra kartan: Klicka på de gröna knapparna med ett svart kors på för att zooma in; den gröna knappen med ett streck på för att zooma ut; eller på de gröna pilarna för angränsande kartor.


METAR-TAF: